METAR Data
IDs: Format: Raw Decoded Include TAF

Data at: 1235 UTC 25 Jun 2019

KERV 251215Z AUTO 17003KT 10SM CLR 22/17 A2992 RMK AO2 T02200165
KERV 251155Z AUTO 13011KT 10SM CLR 22/17 A2989 RMK AO2 T02200170 10233 20205
KERV 251135Z AUTO 13008KT 10SM CLR 22/17 A2990 RMK AO2 T02200169
KERV 251115Z AUTO 15009KT 10SM CLR 22/17 A2991 RMK AO2 T02180172
KERV 251055Z AUTO 15009KT 10SM CLR 22/17 A2992 RMK AO2 T02160171
KERV 251035Z AUTO 00000KT 10SM CLR 22/16 A2994 RMK AO2 T02230160
KERV 251015Z AUTO 00000KT 10SM CLR 23/16 A2994 RMK AO2 T02290164
KERV 250955Z AUTO 19013G21KT 10SM CLR 23/17 A2990 RMK AO2 T02300168
KERV 250935Z AUTO 21011KT 10SM CLR 23/17 A2993 RMK AO2 T02260166
KERV 250915Z AUTO 21010KT 10SM CLR 22/16 A2996 RMK AO2 LTG DSNT SW T02200164
KERV 250855Z AUTO 19005KT 10SM CLR 22/18 A2998 RMK AO2 LTG DSNT SW AND W T02200180

KT82 251215Z AUTO 00000KT 10SM CLR 22/16 A2993 RMK AO2 T02190156
KT82 251155Z AUTO 24003KT 10SM CLR 22/15 A2991 RMK AO2 70007 T02210151 10235 20199
KT82 251135Z AUTO 13003KT 10SM CLR 22/14 A2990 RMK AO2 T02170144
KT82 251115Z AUTO 16004KT 10SM CLR 22/14 A2990 RMK AO2 T02190141
KT82 251055Z AUTO 20005KT 10SM CLR 22/14 A2991 RMK AO2 T02180143
KT82 251035Z AUTO 23005KT 10SM CLR 23/14 A2992 RMK AO2 T02250142
KT82 251015Z AUTO 20011KT 10SM CLR 23/15 A2991 RMK AO2 T02280145
KT82 250955Z AUTO 24009KT 10SM CLR 23/14 A2993 RMK AO2 T02320140
KT82 250935Z AUTO 21014G20KT 10SM CLR 24/14 A2990 RMK AO2 T02350138
KT82 250915Z AUTO 20015G20KT 10SM CLR 23/15 A2990 RMK AO2 LTG DSNT SW T02280146
KT82 250855Z AUTO 20014KT 10SM CLR 22/15 A2991 RMK AO2 T02200152

KJCT 251151Z AUTO 05005KT 10SM CLR 20/14 A2991 RMK AO2 SLP091 60018 70048 T02000144 10272 20200 53008
KJCT 251051Z AUTO 31007KT 10SM CLR 23/14 A2987 RMK AO2 SLP077 T02280139
KJCT 250951Z AUTO 26009G21KT 10SM CLR 27/11 A2986 RMK AO2 SLP071 T02670111
KJCT 250851Z AUTO 20010G17KT 10SM CLR 24/14 A2988 RMK AO2 PK WND 15038/0755 SLP077 60018 T02390144 55064

K5C1 251215Z AUTO 20007KT 10SM CLR 21/20 A2995 RMK AO1
K5C1 251155Z AUTO 21004KT 10SM CLR 20/19 A2996 RMK AO1
K5C1 251135Z AUTO 00000KT 10SM CLR 20/19 A2995 RMK AO1
K5C1 251115Z AUTO 00000KT 10SM CLR 20/19 A2994 RMK AO1
K5C1 251055Z AUTO 19004KT 10SM CLR 21/18 A2994 RMK AO1
K5C1 251035Z AUTO 18003KT 10SM CLR 21/18 A2994 RMK AO1
K5C1 251015Z AUTO 21006KT 10SM CLR 21/18 A2994 RMK AO1
K5C1 250955Z AUTO 19008KT 10SM CLR 21/18 A2996 RMK AO1
K5C1 250935Z AUTO 27006KT 10SM CLR 20/18 A2999 RMK AO1
K5C1 250915Z AUTO 00000KT 10SM CLR 21/19 A2999 RMK AO1
K5C1 250855Z AUTO 00000KT 10SM CLR 20/19 A2999 RMK AO1

KHDO 251151Z AUTO 32006KT 10SM CLR 21/18 A2994 RMK AO2 SLP124 70004 T02060183 10239 20206 55016
KHDO 251051Z AUTO 19005KT 10SM CLR 21/18 A2990 RMK AO2 SLP111 T02060178 $
KHDO 250951Z AUTO 31009KT 10SM FEW043 SCT075 BKN090 23/18 A2997 RMK AO2 SLP134 T02330183 $
KHDO 250851Z AUTO 34006KT 10SM OVC035 23/19 A2999 RMK AO2 SLP140 T02280189 57008 $

KMWL 251153Z AUTO 00000KT 10SM CLR 19/18 A2993 RMK AO2 SLP123 T01940183 10217 20189 53017
KMWL 251053Z AUTO 00000KT 10SM CLR 20/18 A2990 RMK AO2 SLP113 T02000183
KMWL 250953Z AUTO 10005KT 10SM CLR 19/18 A2987 RMK AO2 SLP103 T01940183
KMWL 250853Z AUTO 08004KT 10SM CLR 21/18 A2988 RMK AO2 SLP106 T02060183 55009

KADM 251155Z 13003KT 7SM BKN005 OVC080 21/21 A2996
KADM 251135Z AUTO 12003KT 7SM SCT005 SCT080 SCT100 21/21 A2995 RMK AO2 T02130210
KADM 251115Z AUTO 09004KT 7SM SCT005 BKN011 21/21 A2994 RMK AO2 T02120209
KADM 251055Z AUTO 09004KT 7SM BKN011 BKN110 21/21 A2993 RMK AO2 T02140210
KADM 251035Z AUTO 00000KT 7SM CLR 22/21 A2993 RMK AO2 T02150210
KADM 251015Z AUTO 00000KT 7SM CLR 22/21 A2992 RMK AO2 T02150210
KADM 250955Z AUTO 13003KT 7SM CLR 22/21 A2992 RMK AO2 T02160211
KADM 250935Z AUTO 11003KT 5SM BR CLR 22/21 A2991 RMK AO2 T02160211
KADM 250915Z AUTO 00000KT 7SM CLR 22/21 A2991 RMK AO2 T02180212
KADM 250855Z AUTO 12003KT 7SM CLR 22/21 A2991 RMK AO2 T02200214

KJLN 251153Z 18006KT 10SM CLR 19/17 A2998 RMK AO2 SLP145 T01890172 10189 20161 53017
KJLN 251053Z 17006KT 10SM CLR 18/16 A2997 RMK AO2 SLP139 T01780156
KJLN 250953Z AUTO 15005KT 10SM CLR 18/15 A2994 RMK AO2 SLP130 T01780150
KJLN 250853Z AUTO 18004KT 10SM CLR 17/15 A2993 RMK AO2 SLP127 T01720150 56003

KSZL 251156Z 19008KT 10SM FEW100 18/17 A2991 RMK AO2A SLP125 T01760171 10176 20157 52015
KSZL 251056Z 19007KT 10SM FEW100 16/16 A2989 RMK AO2A SLP119 T01620159
KSZL 250956Z 18008KT 10SM FEW100 16/16 A2988 RMK AO2A SLP116 T01620162
KSZL 250856Z 17006KT 10SM CLR 17/16 A2987 RMK AO2A SLP112 T01650163 50002

KCOU 251154Z 17007KT 10SM CLR 17/16 A2998 RMK AO2 SLP145 T01720156 10183 20156 53020
KCOU 251054Z AUTO 16005KT 10SM CLR 16/14 A2996 RMK AO2 SLP138 T01560139
KCOU 250954Z AUTO 18004KT 10SM CLR 16/14 A2994 RMK AO2 SLP131 T01610139
KCOU 250854Z AUTO 19004KT 10SM CLR 17/14 A2992 RMK AO2 SLP124 T01720144 53004

KCWI 251156Z AUTO 23005KT 10SM CLR 19/17 A2987 RMK AO2 SLP132 70005 T01940167 10194 20156 53021
KCWI 251056Z AUTO 24006KT 10SM CLR 16/16 A2985 RMK AO2 SLP127 T01610156
KCWI 250956Z AUTO 22007KT 10SM CLR 17/16 A2983 RMK AO2 SLP119 T01670156
KCWI 250856Z AUTO 23008KT 10SM FEW085 SCT110 17/16 A2981 RMK AO2 SLP115 T01670156 51007

KJLN 251153Z 18006KT 10SM CLR 19/17 A2998 RMK AO2 SLP145 T01890172 10189 20161 53017
KJLN 251053Z 17006KT 10SM CLR 18/16 A2997 RMK AO2 SLP139 T01780156
KJLN 250953Z AUTO 15005KT 10SM CLR 18/15 A2994 RMK AO2 SLP130 T01780150
KJLN 250853Z AUTO 18004KT 10SM CLR 17/15 A2993 RMK AO2 SLP127 T01720150 56003

KOSH 251153Z VRB04KT 10SM CLR 17/14 A2976 RMK AO2 SLP072 70034 T01670139 10167 20150 51017
KOSH 251053Z VRB03KT 10SM CLR 15/13 A2975 RMK AO2 SLP068 T01500133
KOSH 250953Z AUTO 00000KT 10SM CLR 15/13 A2973 RMK AO2 SLP061 T01500128
KOSH 250853Z AUTO 25005KT 10SM CLR 16/13 A2971 RMK AO2 SLP055 T01560133 53018